createdAt,value
2023-03-07T00:00:52.741Z,20.00
2023-03-07T00:03:21.744Z,18.90
2023-03-07T00:05:49.948Z,19.10
2023-03-07T00:08:31.137Z,18.73
2023-03-07T00:11:03.165Z,19.83
2023-03-07T00:13:34.164Z,19.50
2023-03-07T00:16:03.773Z,19.57
2023-03-07T00:18:32.450Z,19.23
2023-03-07T00:21:01.399Z,19.27
2023-03-07T00:23:29.674Z,19.17
2023-03-07T00:25:59.849Z,17.57
2023-03-07T00:28:28.093Z,18.63
2023-03-07T00:31:01.567Z,18.67
2023-03-07T00:33:29.553Z,17.40
2023-03-07T00:35:58.738Z,18.53
2023-03-07T00:38:27.204Z,20.23
2023-03-07T00:40:59.756Z,18.60
2023-03-07T00:43:28.184Z,17.43
2023-03-07T00:45:57.889Z,17.57
2023-03-07T00:48:28.698Z,18.47
2023-03-07T00:50:57.202Z,17.97
2023-03-07T00:53:26.076Z,17.40
2023-03-07T00:55:58.953Z,18.77
2023-03-07T00:58:28.518Z,17.93
2023-03-07T01:00:58.455Z,16.10
2023-03-07T01:03:27.224Z,17.80
2023-03-07T01:05:58.410Z,18.70
2023-03-07T01:08:29.294Z,17.80
2023-03-07T01:10:59.959Z,16.70
2023-03-07T01:13:29.847Z,17.37
2023-03-07T01:16:08.502Z,17.83
2023-03-07T01:18:36.834Z,18.33
2023-03-07T01:21:13.051Z,17.83
2023-03-07T01:23:41.399Z,17.60
2023-03-07T01:26:13.640Z,17.87
2023-03-07T01:28:41.679Z,17.23
2023-03-07T01:31:11.552Z,16.53
2023-03-07T01:33:39.833Z,16.10
2023-03-07T01:36:17.416Z,15.73
2023-03-07T01:38:45.722Z,15.40
2023-03-07T01:41:13.836Z,14.37
2023-03-07T01:43:42.195Z,15.10
2023-03-07T01:46:45.342Z,15.70
2023-03-07T01:49:18.417Z,14.60
2023-03-07T01:51:49.283Z,15.07
2023-03-07T01:54:19.370Z,14.37
2023-03-07T01:56:48.599Z,14.00
2023-03-07T01:59:20.474Z,11.93
2023-03-07T02:01:50.371Z,14.03
2023-03-07T02:04:21.019Z,12.87
2023-03-07T02:06:49.421Z,11.53
2023-03-07T02:09:20.395Z,12.77
2023-03-07T02:11:49.003Z,11.93
2023-03-07T02:14:17.539Z,11.70
2023-03-07T02:16:46.035Z,10.87
2023-03-07T02:19:26.712Z,12.40
2023-03-07T02:22:01.893Z,11.47
2023-03-07T02:24:33.757Z,12.03
2023-03-07T02:27:02.671Z,11.17
2023-03-07T02:29:34.563Z,10.57
2023-03-07T02:32:02.306Z,10.80
2023-03-07T02:34:31.469Z,10.20
2023-03-07T02:37:04.902Z,9.87
2023-03-07T02:39:32.707Z,10.57
2023-03-07T02:42:03.766Z,10.13
2023-03-07T02:44:31.487Z,10.63
2023-03-07T02:46:59.105Z,9.97
2023-03-07T02:49:26.663Z,9.90
2023-03-07T02:51:57.654Z,10.17
2023-03-07T02:54:26.086Z,10.10
2023-03-07T02:56:54.053Z,9.37
2023-03-07T02:59:23.103Z,9.33
2023-03-07T03:01:50.678Z,10.13
2023-03-07T03:04:18.517Z,10.00
2023-03-07T03:06:46.167Z,10.13
2023-03-07T03:09:13.744Z,8.27
2023-03-07T03:11:41.321Z,9.70
2023-03-07T03:14:09.007Z,10.17
2023-03-07T03:16:39.627Z,9.13
2023-03-07T03:19:07.542Z,10.30
2023-03-07T03:21:35.540Z,9.10
2023-03-07T03:24:05.979Z,9.73
2023-03-07T03:26:33.799Z,10.00
2023-03-07T03:29:01.559Z,9.40
2023-03-07T03:31:30.352Z,10.17
2023-03-07T03:36:40.783Z,10.70
2023-03-07T03:39:10.942Z,10.93
2023-03-07T03:41:38.804Z,11.37
2023-03-07T03:44:06.585Z,12.07
2023-03-07T03:46:34.190Z,11.93
2023-03-07T03:49:01.859Z,13.47
2023-03-07T03:51:29.446Z,13.67
2023-03-07T03:53:58.750Z,13.10
2023-03-07T03:56:27.282Z,13.50
2023-03-07T03:58:56.304Z,14.23
2023-03-07T04:01:25.842Z,14.33
2023-03-07T04:03:54.432Z,14.50
2023-03-07T04:06:24.024Z,14.20
2023-03-07T04:08:52.266Z,13.20
2023-03-07T04:11:21.512Z,14.20
2023-03-07T04:13:49.221Z,15.07
2023-03-07T04:16:17.347Z,14.97
2023-03-07T04:18:44.918Z,14.40
2023-03-07T04:21:13.750Z,14.47
2023-03-07T04:23:41.375Z,14.90
2023-03-07T04:26:11.357Z,13.47
2023-03-07T04:28:45.677Z,14.53
2023-03-07T04:31:14.324Z,13.03
2023-03-07T04:33:42.102Z,13.80
2023-03-07T04:36:09.890Z,13.30
2023-03-07T04:38:39.042Z,14.53
2023-03-07T04:41:07.188Z,14.03
2023-03-07T04:43:34.848Z,12.93
2023-03-07T04:46:04.043Z,13.70
2023-03-07T04:48:31.638Z,13.20
2023-03-07T04:50:59.777Z,14.20
2023-03-07T04:53:27.564Z,14.97
2023-03-07T04:55:58.507Z,14.70
2023-03-07T04:58:26.247Z,14.23
2023-03-07T05:00:53.835Z,13.80
2023-03-07T05:03:23.655Z,12.03
2023-03-07T05:05:51.473Z,12.80
2023-03-07T05:08:19.185Z,12.37
2023-03-07T05:10:46.945Z,12.97
2023-03-07T05:13:14.568Z,12.83
2023-03-07T05:15:42.179Z,14.37
2023-03-07T05:18:09.768Z,12.70
2023-03-07T05:20:38.739Z,12.53
2023-03-07T05:23:06.287Z,13.30
2023-03-07T05:25:33.849Z,11.70
2023-03-07T05:28:01.469Z,12.63
2023-03-07T05:30:29.095Z,13.07
2023-03-07T05:32:56.748Z,13.10
2023-03-07T05:35:25.304Z,12.73
2023-03-07T05:37:54.197Z,13.13
2023-03-07T05:40:21.890Z,13.17
2023-03-07T05:42:49.502Z,13.70
2023-03-07T05:45:17.108Z,13.27
2023-03-07T05:47:44.673Z,12.67
2023-03-07T05:50:13.163Z,13.73
2023-03-07T05:52:40.963Z,12.70
2023-03-07T05:55:10.572Z,12.53
2023-03-07T05:57:38.282Z,13.73
2023-03-07T06:00:08.197Z,13.60
2023-03-07T06:02:35.915Z,11.93
2023-03-07T06:05:03.597Z,12.67
2023-03-07T06:07:31.138Z,13.10
2023-03-07T06:09:58.669Z,12.40
2023-03-07T06:12:27.629Z,12.70
2023-03-07T06:14:55.151Z,13.23
2023-03-07T06:17:22.791Z,12.83
2023-03-07T06:19:50.406Z,11.80
2023-03-07T06:22:18.017Z,12.10
2023-03-07T06:24:46.083Z,12.47
2023-03-07T06:27:13.700Z,12.07
2023-03-07T06:29:42.718Z,12.53
2023-03-07T06:32:10.379Z,10.73
2023-03-07T06:34:38.113Z,12.73
2023-03-07T06:37:05.815Z,11.43
2023-03-07T06:39:33.379Z,12.87
2023-03-07T06:42:00.941Z,11.63
2023-03-07T06:44:28.517Z,11.43
2023-03-07T06:46:57.503Z,11.27
2023-03-07T06:49:25.171Z,13.13
2023-03-07T06:51:52.813Z,11.73
2023-03-07T06:54:20.450Z,11.37
2023-03-07T06:56:48.245Z,11.57
2023-03-07T06:59:15.950Z,11.03
2023-03-07T07:01:43.574Z,11.13
2023-03-07T07:04:12.566Z,11.73
2023-03-07T07:06:40.128Z,11.07
2023-03-07T07:09:07.719Z,11.23
2023-03-07T07:11:35.459Z,11.17
2023-03-07T07:14:03.292Z,10.40
2023-03-07T07:16:33.608Z,13.07
2023-03-07T07:19:01.212Z,10.87
2023-03-07T07:21:30.169Z,10.23
2023-03-07T07:23:57.982Z,10.50
2023-03-07T07:26:26.436Z,10.57
2023-03-07T07:28:54.276Z,9.73
2023-03-07T07:31:22.789Z,10.27
2023-03-07T07:33:50.405Z,11.07
2023-03-07T07:36:17.999Z,10.60
2023-03-07T07:38:46.906Z,10.83
2023-03-07T07:41:14.489Z,9.80
2023-03-07T07:43:42.658Z,10.53
2023-03-07T07:46:10.239Z,10.87
2023-03-07T07:48:37.840Z,10.57
2023-03-07T07:51:06.038Z,10.27
2023-03-07T07:53:33.620Z,9.93
2023-03-07T07:56:02.510Z,9.03
2023-03-07T07:58:30.039Z,10.17
2023-03-07T08:00:57.644Z,9.67
2023-03-07T08:03:25.443Z,9.73
2023-03-07T08:05:53.066Z,10.03
2023-03-07T08:08:20.932Z,9.50
2023-03-07T08:10:48.681Z,10.00
2023-03-07T08:13:18.447Z,8.90
2023-03-07T08:15:46.047Z,9.77
2023-03-07T08:18:13.806Z,9.40
2023-03-07T08:20:42.133Z,9.13
2023-03-07T08:23:09.919Z,9.80
2023-03-07T08:25:37.541Z,9.13
2023-03-07T08:28:05.720Z,8.67
2023-03-07T08:30:37.071Z,8.83
2023-03-07T08:33:04.687Z,8.80
2023-03-07T08:35:32.993Z,8.47
2023-03-07T08:38:01.001Z,8.37
2023-03-07T08:40:29.227Z,8.83
2023-03-07T08:42:56.766Z,8.13
2023-03-07T08:45:24.840Z,8.40
2023-03-07T08:47:54.621Z,8.37
2023-03-07T08:50:22.305Z,7.70
2023-03-07T08:52:49.994Z,8.30
2023-03-07T08:55:17.847Z,8.30
2023-03-07T08:57:47.473Z,8.33
2023-03-07T09:00:17.890Z,8.03
2023-03-07T09:02:45.659Z,8.93
2023-03-07T09:05:14.612Z,8.60
2023-03-07T09:07:43.038Z,8.10
2023-03-07T09:10:12.493Z,7.57
2023-03-07T09:12:40.097Z,7.60
2023-03-07T09:15:08.943Z,7.97
2023-03-07T09:17:36.726Z,8.23
2023-03-07T09:20:04.761Z,7.40
2023-03-07T09:22:33.830Z,7.57
2023-03-07T09:25:01.392Z,8.37
2023-03-07T09:27:29.032Z,7.97
2023-03-07T09:29:56.618Z,7.50
2023-03-07T09:32:24.191Z,8.07
2023-03-07T09:34:53.163Z,8.00
2023-03-07T09:37:20.791Z,8.43
2023-03-07T09:39:51.296Z,8.10
2023-03-07T09:42:23.945Z,7.53
2023-03-07T09:45:08.667Z,6.77
2023-03-07T09:47:57.342Z,7.57
2023-03-07T09:50:30.562Z,7.37
2023-03-07T09:53:02.546Z,7.03
2023-03-07T09:55:32.311Z,7.20
2023-03-07T09:58:01.313Z,7.23
2023-03-07T10:00:31.927Z,7.13
2023-03-07T10:03:08.396Z,7.17
2023-03-07T10:05:38.955Z,7.33
2023-03-07T10:08:06.917Z,6.80
2023-03-07T10:10:39.762Z,7.20
2023-03-07T10:13:19.118Z,6.80
2023-03-07T10:15:47.614Z,7.17
2023-03-07T10:18:32.942Z,6.97
2023-03-07T10:21:05.695Z,6.90
2023-03-07T10:23:42.227Z,7.03
2023-03-07T10:26:13.373Z,7.50
2023-03-07T10:28:42.971Z,6.83
2023-03-07T10:31:19.342Z,6.80
2023-03-07T10:33:48.476Z,7.00
2023-03-07T10:36:20.709Z,6.37
2023-03-07T10:38:57.118Z,6.93
2023-03-07T10:41:26.060Z,6.53
2023-03-07T10:43:56.318Z,6.97
2023-03-07T10:46:27.156Z,6.57
2023-03-07T10:49:10.135Z,6.20
2023-03-07T10:51:46.009Z,6.73
2023-03-07T10:54:16.473Z,6.57
2023-03-07T10:57:03.900Z,6.13
2023-03-07T10:59:31.597Z,6.00
2023-03-07T11:02:00.888Z,6.93
2023-03-07T11:04:30.116Z,6.90
2023-03-07T11:06:58.567Z,5.60
2023-03-07T11:09:28.787Z,6.27
2023-03-07T11:11:59.386Z,5.77
2023-03-07T11:14:28.381Z,6.07
2023-03-07T11:16:57.461Z,6.10
2023-03-07T11:19:29.315Z,5.93
2023-03-07T11:21:58.584Z,6.57
2023-03-07T11:24:27.295Z,6.50
2023-03-07T11:26:55.707Z,6.23
2023-03-07T11:29:26.029Z,7.73
2023-03-07T11:31:59.381Z,7.07
2023-03-07T11:34:37.398Z,6.30
2023-03-07T11:37:30.558Z,6.87
2023-03-07T11:40:14.214Z,6.97
2023-03-07T11:42:46.118Z,6.63
2023-03-07T11:45:27.484Z,7.17
2023-03-07T11:48:04.566Z,7.57
2023-03-07T11:50:33.525Z,9.07
2023-03-07T11:53:22.538Z,6.13
2023-03-07T11:55:57.968Z,7.27
2023-03-07T11:58:46.292Z,6.80
2023-03-07T12:01:22.277Z,6.40
2023-03-07T12:04:02.300Z,6.50
2023-03-07T12:06:36.227Z,6.80
2023-03-07T12:09:11.332Z,6.37
2023-03-07T12:11:50.913Z,6.17
2023-03-07T12:14:23.630Z,6.83
2023-03-07T12:16:59.685Z,7.13
2023-03-07T12:19:44.416Z,6.70
2023-03-07T12:22:24.931Z,7.33
2023-03-07T12:25:14.773Z,8.40
2023-03-07T12:27:45.058Z,6.10
2023-03-07T12:30:17.710Z,6.97
2023-03-07T12:32:47.054Z,7.10
2023-03-07T12:35:22.398Z,6.23
2023-03-07T12:37:54.016Z,7.10
2023-03-07T12:40:22.499Z,7.07
2023-03-07T12:42:55.833Z,7.10
2023-03-07T12:45:26.831Z,7.43
2023-03-07T12:48:01.826Z,6.77
2023-03-07T12:50:33.071Z,7.00
2023-03-07T12:53:04.442Z,8.20
2023-03-07T12:55:33.892Z,7.93
2023-03-07T12:58:07.427Z,7.53
2023-03-07T13:00:41.128Z,7.70
2023-03-07T13:03:17.564Z,6.93
2023-03-07T13:05:45.313Z,7.47
2023-03-07T13:08:20.154Z,6.83
2023-03-07T13:10:47.903Z,7.17
2023-03-07T13:13:48.801Z,7.63
2023-03-07T13:16:41.317Z,7.53
2023-03-07T13:19:53.929Z,8.37
2023-03-07T13:22:58.960Z,7.90
2023-03-07T13:25:44.085Z,8.00
2023-03-07T13:28:42.658Z,7.47
2023-03-07T13:31:29.025Z,8.60
2023-03-07T13:33:56.615Z,8.13
2023-03-07T13:36:37.767Z,7.77
2023-03-07T13:39:38.958Z,8.37
2023-03-07T13:42:46.558Z,9.23
2023-03-07T13:45:47.149Z,8.73
2023-03-07T13:49:02.057Z,7.77
2023-03-07T13:51:31.968Z,7.40
2023-03-07T13:54:02.868Z,7.93
2023-03-07T13:56:31.915Z,5.97
2023-03-07T13:59:01.401Z,6.80
2023-03-07T14:01:32.720Z,6.33
2023-03-07T14:04:06.004Z,5.73
2023-03-07T14:06:38.153Z,5.60
2023-03-07T14:09:07.083Z,5.47
2023-03-07T14:11:41.836Z,5.13
2023-03-07T14:14:30.647Z,5.80
2023-03-07T14:17:10.060Z,5.80
2023-03-07T14:19:49.700Z,5.27
2023-03-07T14:22:23.449Z,5.00
2023-03-07T14:25:09.226Z,4.80
2023-03-07T14:27:51.622Z,4.50
2023-03-07T14:30:20.004Z,4.90
2023-03-07T14:32:48.017Z,4.37
2023-03-07T14:35:21.051Z,5.00
2023-03-07T14:37:48.672Z,6.67
2023-03-07T14:40:28.996Z,5.40
2023-03-07T14:43:05.258Z,5.30
2023-03-07T14:45:38.820Z,5.57
2023-03-07T14:48:39.597Z,4.83
2023-03-07T14:51:13.804Z,5.07
2023-03-07T14:53:42.836Z,4.93
2023-03-07T14:56:11.217Z,4.87
2023-03-07T14:58:48.087Z,5.20
2023-03-07T15:01:19.455Z,4.80
2023-03-07T15:03:48.526Z,5.23
2023-03-07T15:06:19.547Z,5.10
2023-03-07T15:08:49.104Z,4.80
2023-03-07T15:11:25.200Z,4.60
2023-03-07T15:13:54.370Z,5.43
2023-03-07T15:16:27.144Z,5.00
2023-03-07T15:18:57.004Z,5.60
2023-03-07T15:21:27.239Z,5.70
2023-03-07T15:23:56.444Z,6.00
2023-03-07T15:26:24.706Z,5.50
2023-03-07T15:28:59.438Z,6.07
2023-03-07T15:31:30.714Z,5.87
2023-03-07T15:34:11.931Z,5.77
2023-03-07T15:36:40.907Z,5.20
2023-03-07T15:39:34.273Z,6.10
2023-03-07T15:42:04.225Z,5.70
2023-03-07T15:44:32.962Z,6.43
2023-03-07T15:47:03.865Z,6.50
2023-03-07T15:49:37.548Z,6.17
2023-03-07T15:52:07.228Z,6.70
2023-03-07T15:54:39.559Z,6.57
2023-03-07T15:57:09.416Z,6.90
2023-03-07T15:59:38.959Z,6.80
2023-03-07T16:02:41.986Z,7.67
2023-03-07T16:05:32.862Z,7.63
2023-03-07T16:08:01.828Z,7.20
2023-03-07T16:10:31.667Z,7.03
2023-03-07T16:13:00.630Z,7.73
2023-03-07T16:15:28.261Z,7.67
2023-03-07T16:17:56.733Z,6.47
2023-03-07T16:20:25.886Z,7.10
2023-03-07T16:22:54.086Z,6.70
2023-03-07T16:25:24.264Z,7.47
2023-03-07T16:27:54.078Z,6.80
2023-03-07T16:30:24.465Z,7.93
2023-03-07T16:32:52.112Z,7.20
2023-03-07T16:35:21.459Z,7.40
2023-03-07T16:37:48.989Z,6.77
2023-03-07T16:40:17.076Z,7.03
2023-03-07T16:42:48.210Z,7.53
2023-03-07T16:45:19.861Z,7.47
2023-03-07T16:47:47.797Z,6.93
2023-03-07T16:50:17.184Z,7.07
2023-03-07T16:52:44.995Z,7.20
2023-03-07T16:55:14.062Z,7.37
2023-03-07T16:57:42.630Z,7.80
2023-03-07T17:00:16.834Z,7.20
2023-03-07T17:02:44.754Z,8.07
2023-03-07T17:05:20.487Z,7.70
2023-03-07T17:07:48.283Z,7.30
2023-03-07T17:10:16.483Z,7.37
2023-03-07T17:12:44.559Z,7.20
2023-03-07T17:15:16.373Z,6.83
2023-03-07T17:17:44.184Z,6.23
2023-03-07T17:20:14.559Z,7.20
2023-03-07T17:22:42.138Z,7.27
2023-03-07T17:25:09.914Z,6.67
2023-03-07T17:27:41.094Z,6.00
2023-03-07T17:30:10.673Z,6.67
2023-03-07T17:32:39.590Z,7.23
2023-03-07T17:35:09.713Z,7.23
2023-03-07T17:37:37.410Z,6.40
2023-03-07T17:40:10.307Z,6.67
2023-03-07T17:42:38.721Z,6.50
2023-03-07T17:45:07.744Z,6.80
2023-03-07T17:47:35.351Z,6.77
2023-03-07T17:50:06.152Z,7.33
2023-03-07T17:52:34.373Z,6.63
2023-03-07T17:55:02.056Z,7.13
2023-03-07T17:57:29.777Z,6.33
2023-03-07T17:59:57.507Z,6.43
2023-03-07T18:02:25.873Z,6.90
2023-03-07T18:04:53.600Z,6.90
2023-03-07T18:07:22.483Z,7.07
2023-03-07T18:09:58.780Z,6.87
2023-03-07T18:12:34.703Z,7.30
2023-03-07T18:15:02.310Z,7.13
2023-03-07T18:17:41.810Z,6.93
2023-03-07T18:20:14.847Z,7.53
2023-03-07T18:22:44.044Z,7.07
2023-03-07T18:25:13.845Z,7.13
2023-03-07T18:27:41.494Z,7.40
2023-03-07T18:30:11.787Z,7.47
2023-03-07T18:32:39.614Z,8.33
2023-03-07T18:35:08.128Z,7.70
2023-03-07T18:37:35.742Z,7.43
2023-03-07T18:40:05.258Z,8.10
2023-03-07T18:42:33.830Z,7.00
2023-03-07T18:45:01.411Z,7.77
2023-03-07T18:47:29.020Z,7.47
2023-03-07T18:49:57.623Z,6.67
2023-03-07T18:52:25.250Z,6.83
2023-03-07T18:54:52.854Z,7.03
2023-03-07T18:57:21.779Z,7.30
2023-03-07T18:59:50.191Z,6.33
2023-03-07T19:02:17.895Z,7.17
2023-03-07T19:04:45.470Z,7.57
2023-03-07T19:07:13.093Z,7.67
2023-03-07T19:09:42.136Z,7.40
2023-03-07T19:12:11.471Z,7.77
2023-03-07T19:14:40.689Z,7.77
2023-03-07T19:17:08.208Z,7.63
2023-03-07T19:19:36.337Z,7.27
2023-03-07T19:22:04.112Z,7.47
2023-03-07T19:24:31.719Z,7.87
2023-03-07T19:26:59.390Z,7.67
2023-03-07T19:29:27.052Z,8.20
2023-03-07T19:31:56.445Z,7.47
2023-03-07T19:34:24.176Z,8.13
2023-03-07T19:36:51.762Z,8.20
2023-03-07T19:39:21.024Z,7.50
2023-03-07T19:41:48.910Z,8.00
2023-03-07T19:44:16.814Z,8.37
2023-03-07T19:46:46.277Z,7.97
2023-03-07T19:49:15.362Z,7.73
2023-03-07T19:51:43.012Z,8.10
2023-03-07T19:54:11.316Z,7.73
2023-03-07T19:56:39.215Z,8.23
2023-03-07T19:59:08.246Z,7.77
2023-03-07T20:01:35.923Z,7.30
2023-03-07T20:04:04.791Z,8.40
2023-03-07T20:06:33.756Z,8.13
2023-03-07T20:09:01.559Z,8.63
2023-03-07T20:11:30.445Z,7.87
2023-03-07T20:13:59.253Z,8.13
2023-03-07T20:16:29.233Z,8.30
2023-03-07T20:18:58.202Z,8.80
2023-03-07T20:21:28.359Z,8.00
2023-03-07T20:23:59.720Z,7.90
2023-03-07T20:26:28.857Z,8.13
2023-03-07T20:28:57.683Z,7.73
2023-03-07T20:31:25.410Z,8.20
2023-03-07T20:33:53.037Z,8.03
2023-03-07T20:36:22.677Z,7.90
2023-03-07T20:38:51.763Z,7.70
2023-03-07T20:41:22.333Z,7.70
2023-03-07T20:43:50.623Z,7.90
2023-03-07T20:46:19.913Z,8.33
2023-03-07T20:48:48.501Z,8.03
2023-03-07T20:51:19.596Z,8.00
2023-03-07T20:53:47.399Z,7.60
2023-03-07T20:56:15.152Z,8.07
2023-03-07T20:58:44.259Z,8.47
2023-03-07T21:01:12.676Z,8.87
2023-03-07T21:03:40.300Z,8.57
2023-03-07T21:06:08.082Z,7.97
2023-03-07T21:08:37.208Z,7.70
2023-03-07T21:11:06.358Z,8.67
2023-03-07T21:13:35.899Z,8.00
2023-03-07T21:16:07.225Z,8.27
2023-03-07T21:18:35.030Z,8.00
2023-03-07T21:21:02.955Z,8.00
2023-03-07T21:23:30.735Z,7.87
2023-03-07T21:26:01.450Z,7.73
2023-03-07T21:28:29.011Z,7.50
2023-03-07T21:31:00.717Z,7.77
2023-03-07T21:33:29.924Z,8.33
2023-03-07T21:35:57.646Z,8.30
2023-03-07T21:38:25.424Z,8.00
2023-03-07T21:40:54.430Z,8.13
2023-03-07T21:43:22.702Z,7.97
2023-03-07T21:45:50.472Z,6.93
2023-03-07T21:48:19.195Z,8.20
2023-03-07T21:50:49.777Z,7.20
2023-03-07T21:53:17.432Z,7.37
2023-03-07T21:55:51.016Z,7.50
2023-03-07T21:58:18.749Z,7.70
2023-03-07T22:00:46.402Z,8.00
2023-03-07T22:03:14.121Z,7.40
2023-03-07T22:05:41.981Z,7.33
2023-03-07T22:08:11.249Z,8.03
2023-03-07T22:10:38.925Z,8.13
2023-03-07T22:13:07.021Z,8.30
2023-03-07T22:15:34.822Z,8.60
2023-03-07T22:18:02.541Z,9.43
2023-03-07T22:20:30.198Z,7.77
2023-03-07T22:22:57.797Z,7.50
2023-03-07T22:25:26.825Z,8.43
2023-03-07T22:27:54.410Z,8.80
2023-03-07T22:30:22.044Z,7.90
2023-03-07T22:32:49.646Z,7.77
2023-03-07T22:35:17.414Z,5.63
2023-03-07T22:37:45.004Z,5.20
2023-03-07T22:40:13.842Z,4.97
2023-03-07T22:42:42.779Z,4.97
2023-03-07T22:45:11.174Z,4.67
2023-03-07T22:47:38.818Z,5.00
2023-03-07T22:50:07.437Z,4.90
2023-03-07T22:52:35.065Z,4.67
2023-03-07T22:55:02.713Z,4.40
2023-03-07T22:57:31.493Z,3.80
2023-03-07T23:00:00.432Z,3.30
2023-03-07T23:02:28.012Z,3.73
2023-03-07T23:04:55.502Z,4.27
2023-03-07T23:07:23.156Z,3.80
2023-03-07T23:09:50.858Z,3.70
2023-03-07T23:12:18.408Z,3.40
2023-03-07T23:14:46.035Z,2.97
2023-03-07T23:17:15.176Z,3.27
2023-03-07T23:19:42.758Z,3.23
2023-03-07T23:22:10.407Z,3.63
2023-03-07T23:24:38.047Z,3.83
2023-03-07T23:27:06.208Z,3.93
2023-03-07T23:29:34.326Z,4.43
2023-03-07T23:32:03.762Z,4.37
2023-03-07T23:34:33.575Z,4.93
2023-03-07T23:37:02.009Z,4.40
2023-03-07T23:39:30.228Z,4.80
2023-03-07T23:41:58.541Z,4.30
2023-03-07T23:44:26.731Z,4.67
2023-03-07T23:46:54.980Z,4.30
2023-03-07T23:49:23.073Z,4.23
2023-03-07T23:51:51.987Z,4.10
2023-03-07T23:54:20.256Z,4.23
2023-03-07T23:56:48.593Z,4.30
2023-03-07T23:59:16.749Z,3.90
